Gaslog data for 2002 Honda Civic LX

Go Back   Gas Savers - Fuel Efficiency Forum > Garage > 2002 Honda Civic LX
Add Garage Entry Top Ten Entries Search the Garage


Welcome, non logged-in user
Your Garage


Gaslog data for 2002 Honda Civic LX
Date Distance Fuel Used Cost of Fuel Notes MPG(US)
08/20/2010 439.64 10.43 0.999(707.5km = 439.64miles) (39.48L = 10.43Gallons(US)). $0.999/litre (1 gal = 3.785 L) (1km = 0.6214 Miles). Highway & City driving.42.15
07/18/2010 437.1 11.26 1.04(703.4km = 437.1miles) (42.62L = 11.26Gallons(US)). $1.04/litre (1 gal = 3.785 L) (1km = 0.6214 Miles). Highway & City driving.38.81
07/09/2010 442.19 11.52 1.026(711.6km = 442.19miles) (43.6L = 11.52Gallons(US)). $1.026/litre (1 gal = 3.785 L) (1km = 0.6214 Miles). Highway & City driving. 38.38
06/15/2010 406.95 10.75 0(654.9km = 406.95miles) (40.67L = 10.75Gallons(US)). $1.007/litre (1 gal = 3.785 L) (1km = 0.6214 Miles). Highway & City driving. 37.85
05/22/2010 429.6 11.2 1.008(691.4km = 429.6miles) (42.41L = 11.2Gallons(US)). $1.008/litre (1 gal = 3.785 L) (1km = 0.6214 Miles). Highway & City driving. Mostly highway this tank.38.35
04/06/2010 398.4 10.6 1.058(641.1km = 398.4miles) (40.11L = 10.6Gallons(US)). $1.058/litre (1 gal = 3.785 L) (1km = 0.6214 Miles). Highway & City driving. All-season tires & rims installed near start of tank. Warmer weather now.37.58
03/22/2010 399.19 10.96 1.068(642.4km = 399.19miles) (41.48L = 10.96Gallons(US)). $1.068/litre (1 gal = 3.785 L) (1km = 0.6214 Miles). Highway & City driving. Winter tires on.36.42
02/13/2010 375.08 10.732 1.011(603.6.0km = 375.08miles) (40.62L = 10.732Gallons(US)). $1.011/litre (1 gal = 3.785 L) (1km = 0.6214 Miles). Highway & City driving. Winter tires on. Winter driving.34.94
01/26/2010 357.9 10.47 1.042(576.0km = 357.9miles) (39.63L = 10.47Gallons(US)). $1.042/litre (1 gal = 3.785 L) (1km = 0.6214 Miles). Highway & City driving. Winter tires on. Winter driving.34.18
11/09/2009 386.45 10.53 1.066(621.9km = 386.45miles) (39.87L = 10.53Gallons(US)). $1.066/litre (1 gal = 3.785 L) (1km = 0.6214 Miles). Highway & City driving. Winter tires on now. Colder weather.36.69
09/17/2009 440 11.086 1.011(708km = 440miles) (41.96L = 11.086Gallons(US)). $1.011/litre (1 gal = 3.785 L) (1km = 0.6214 Miles). Highway & City driving.39.68
08/26/2009 440.6 10.73 1.054(709km = 440.6miles) (40.6L = 10.73Gallons(US)). $1.054/litre (1 gal = 3.785 L) (1km = 0.6214 Miles). Highway & City driving.41.06
08/01/2009 423.5 10.46 0.994(681.5km = 423.5miles) (39.61L = 10.46Gallons(US)). $0.994/litre (1 gal = 3.785 L) (1km = 0.6214 Miles). Highway & City driving.40.48
07/10/2009 461.7 11.49 0.986(743km = 461.7miles) (43.5L = 11.49Gallons(US)). $0.986/litre (1 gal = 3.785 L) (1km = 0.6214 Miles). Highway & City driving. Lots of wet / humid weather during this tank.40.18
06/05/2009 449.6 10.53 1.032(723.5km = 449.6miles) (39.85L = 10.53Gallons(US)). $1.032/litre (1 gal = 3.785 L) (1km = 0.6214 Miles). Highway & City driving.42.69
05/20/2009 429.2 11.14 0.993(690.7km = 429.2miles) (42.175L = 11.14Gallons(US)). $0.993/litre (1 gal = 3.785 L) (1km = 0.6214 Miles). Highway & City driving.38.52
04/20/2009 411 11.17 0.904(661.4km = 411miles) (42.28L = 11.17Gallons(US)). $0.904/litre (1 gal = 3.785 L) (1km = 0.6214 Miles). All season tires installed now. Highway & City driving.36.79
04/11/2009 417.2 11.107 0.904(671.4km = 417.2miles) (42.04L = 11.107Gallons(US)). $0.904/litre (1 gal = 3.785 L) (1km = 0.6214 Miles). All season tires installed now. Highway & City driving.37.56
12/23/2008 369.24 10.67 0.755(594.2km = 369.24miles) (40.4L = 10.67Gallons(US)). $0.755/litre (1 gal = 3.785 L) (1km = 0.6214 Miles). Mostly highway, some city driving. Colder weather, winter driving.34.60
12/06/2008 383.47 10.81 0.788(617.1km = 383.47 miles) (40.93L = 10.81Gallons(US)). $0.788/litre (1 gal = 3.785 L) (1km = 0.6214 Miles). Mostly highway, some city driving. Colder weather, winter driving.35.47
11/29/2008 376.94 11.22 0.824(606.6km = 376.94 miles) (42.473L = 11.22 Gallons(US)). $0.824/litre (1 gal = 3.785 L) (1km = 0.6214 Miles). Mostly highway, some city driving. Colder weather, winter driving.33.59
11/14/2008 424.54 11.43 0.861(683.2km = 424.54miles) (43.27L = 11.43Gallons(US)). $0.861/litre (1 gal = 3.785 L) (1km = 0.6214 Miles). Mostly highway, some city driving. Colder weather, winter tires installed, at 34psi at normal weather temperature highs of the season. Having vibrations at highway speeds, ever since winter wheels have been put back on. Getting balancing and alignment done at start of next tank.37.14
11/01/2008 243.34 6.26 0.97(391.6km = 243.34miles) (23.7L = 6.26Gallons(US)). $0.970/litre (1 gal = 3.785 L) (1km = 0.6214 Miles). Mostly highway, some city driving. Still not sure if rear lip spoiler is helping any, but will leave on for now anyways.38.87
10/27/2008 441.5 12 1.029(710.5km = 441.5miles) (45.43L = 12.00Gallons(US)). $1.029/Litre (1 gal = 3.785 L) (1km = 0.6214 Miles). Mostly highway, some city driving. Installed rear trunk lip near end of this tank. Not sure why mileage was down so much this time. Perhaps colder and wetter weather lately. Need to go another tank to see effect of lip spoiler.36.79
10/10/2008 422.117 10.457 1.099(679.3km = 422.117miles) (39.58L = 10.457Gallons(US)). $1.099/Litre (1 gal = 3.785 L) (1km = 0.6214 Miles). Mostly highway, some city driving.40.36
10/01/2008 447.04 11.178 1.225(719.4km = 447.04miles) (42.31L = 11.178Gallons(US)). $1.225/Litre (1 gal = 3.785 L) (1km = 0.6214 Miles). Mostly highway, some city driving.39.99
09/19/2008 500.04 12.163 1.251(804.7km = 500.04miles) (46.037L = 12.163Gallons(US)). $1.251/Litre (1 gal = 3.785 L) (1km = 0.6214 Miles). Mostly highway, some city driving. 41.11
09/14/2008 342.27 8.65 1.431(550.8km = 342.27miles) (32.742L = 8.65Gallons(US)). $1.431/Litre (1 gal = 3.785 L) (1km = 0.6214 Miles). Mostly highway, some city driving. Was driving 2 co-workers during some of this tank.39.56
09/05/2008 444.36 12.08 1.321(715.1km = 444.36miles) (45.73L = 12.08Gallons(US)). $1.321/Litre (1 gal = 3.785 L) (1km = 0.6214 Miles). Mostly highway, some city driving. Was driving 2 co-workers during this tank. More weight and slightly more city driving decreased mileage.36.78
08/22/2008 456.1 10.89 1.31(734km = 456.1miles) (41.22L = 10.89Gallons(US)). $1.31/Litre (1 gal = 3.785 L) (1km = 0.6214 Miles). Mostly highway, some city driving. 38psi (20degC) in tires. Partial grill block installed during this tank. New stereo system and subwoofer installed during this tank.41.88
07/25/2008 448.03 10.85 1.321(721km = 448.03 miles) (41.07L = 10.85 Gallons(US)). $1.321/Litre ($4.99/US Gallon) (1 gal = 3.785 L) (1km = 0.6214 Miles). Mostly highway, some city driving. 37psi (20degC) in tires.41.29
07/19/2008 403.91 10.08 1.4(650km = 403.91 miles) (38.16L = 10.08 Gallons(US)). $1.40/Litre ($5.30/US Gallon) (1 gal = 3.785 L) (1km = 0.6214 Miles). Mostly highway, some city driving. 37psi (20degC) in tires.40.07
06/28/2008 452.379 11.1627 1.42(728km = 452.379 miles) (42.251L = 11.1627 Gallons(US)). $1.42/Litre ($5.375/US Gallon) (1 gal = 3.785 L) (1km = 0.6214 Miles). Mostly highway, some city driving. 37psi (20degC) in tires.40.52
06/16/2008 450.764 10.864 1.423(725.4km = 450.764 miles) (41.119L = 10.864 Gallons(US)). $1.423/Litre ($5.39/US Gallon) (1 gal = 3.785 L) (1km = 0.6214 Miles). Mostly highway, some city driving. 37psi (20degC) in tires.41.49
06/05/2008 444.425 10.57 1.387(715.2km = 444.43 miles) (40.013L = 10.57 Gallons(US)). $1.387/Litre ($5.25/US Gallon) (1 gal = 3.785 L) (1km = 0.6214 Miles). Mostly highway, some city driving. 37psi (20degC) in tires.42.04
05/29/2008 266.891 7.21 1.356(429.5km = 266.891 miles) (27.29L = 7.21 Gallons(US)). $1.356/Litre ($5.13/US Gallon) (1 gal = 3.785 L) (1km = 0.6214 Miles). Mostly highway, some city driving. 37psi (20degC) in tires.37.01
05/22/2008 351.198 9.174 1.339(565.2km = 351.198 miles) (34.727L = 9.174 Gallons(US)). $1.339/Litre ($5.07/US Gallon)(1 gal = 3.785 L). Mostly highway, some city driving. 37psi (20degC) in tires. 38.28
05/06/2008 321.808 7.715 1.286(517.9km = 321.808 miles) (29.2L = 7.715 Gallons(US)). $1.286/Litre ($4.87/US Gallon)(1 gal = 3.785 L). Mostly highway, some city driving. Long highway trip during this tank. 34psi (20degC) in tires. Data may have slight error, because fill-up prior to this one (not recorded), was right up to the top of the gas tank fill pipe. Fill-up this time was to when pump shut off.41.71
04/29/2008 335.354 9 1.321(539.7km = 335.354 miles) (34.076L = 9.00 Gal (US)). $1.321/Litre ($4.99/US Gallon)(1 gal = 3.785 L). Mostly highway, some city driving. 1.5 hours of driving with a lot of stuff in the car during this tank.37.26
04/24/2008 324.17 8.261 1.26(521.7km = 324.17 miles) (31.27L = 8.261 Gal (US)). $1.26/Litre. Mostly highway, some city driving. 39.24
04/17/2008 310 9.008 1.207(498.9km = 310miles) (34.1 = 9.008 US Gal) Paid $1.207/L. All-season tires on alloy rims installed on this tank. Scan Gauge II in use now. Mostly highway, some city.34.41
04/10/2008 323.55 8.83 1.182(520.7km = 323.55 miles) (33.42L = 8.83 Gal) Paid $1.182/L. Winter tires still on, mostly highway, some city.36.64
04/02/2008 316.4 9.16 1.18(509.2km = 316.4 miles) (34.69L = 9.16 Gal). $1.18/Litre. Mostly highway, some city driving. Winter tires still on car.34.54
03/25/2008 356 10.43 1.14(573.2km = 356 miles) (40.11L = 10.43 Gal). $1.14/Litre. Mostly highway, some city driving. Winter tires still on car. Happy with this mileage. Mileage will get better once I have all-season tires back on the car.34.13


All times are GMT -6. The time now is 02:13 PM.


Copyright 2005-2008 GasSavers.Org